createdAt,value
2018-01-14T00:00:13.336Z,0
2018-01-14T00:01:23.118Z,0
2018-01-14T00:02:32.591Z,0
2018-01-14T00:03:41.828Z,0
2018-01-14T00:04:51.648Z,0
2018-01-14T00:06:01.678Z,0
2018-01-14T00:07:11.136Z,0
2018-01-14T00:08:20.904Z,0
2018-01-14T00:09:30.175Z,0
2018-01-14T00:10:39.636Z,0
2018-01-14T00:11:49.092Z,0
2018-01-14T00:12:58.565Z,0
2018-01-14T00:14:08.304Z,0
2018-01-14T00:15:18.060Z,0
2018-01-14T00:16:27.520Z,0
2018-01-14T00:17:36.974Z,0
2018-01-14T00:18:46.171Z,0
2018-01-14T00:19:55.106Z,0
2018-01-14T00:21:04.569Z,0
2018-01-14T00:22:14.291Z,0
2018-01-14T00:23:23.481Z,0
2018-01-14T00:24:32.936Z,0
2018-01-14T00:25:42.387Z,0
2018-01-14T00:26:52.221Z,0
2018-01-14T00:28:01.417Z,0
2018-01-14T00:29:10.890Z,0
2018-01-14T00:30:21.003Z,0
2018-01-14T00:31:30.742Z,0
2018-01-14T00:32:39.941Z,0
2018-01-14T00:33:49.695Z,0
2018-01-14T00:34:59.698Z,0
2018-01-14T00:36:08.898Z,0
2018-01-14T00:37:18.090Z,0
2018-01-14T00:38:27.551Z,0
2018-01-14T00:39:37.285Z,0
2018-01-14T00:40:47.274Z,0
2018-01-14T00:41:56.734Z,0
2018-01-14T00:43:05.937Z,0
2018-01-14T00:44:15.128Z,0
2018-01-14T00:45:24.578Z,0
2018-01-14T00:46:34.044Z,0
2018-01-14T00:47:43.241Z,0
2018-01-14T00:48:51.902Z,0
2018-01-14T00:50:01.644Z,0
2018-01-14T00:51:11.108Z,0
2018-01-14T00:52:20.597Z,0
2018-01-14T00:53:30.341Z,0
2018-01-14T00:54:39.279Z,0
2018-01-14T00:55:48.474Z,0
2018-01-14T00:56:57.666Z,0
2018-01-14T00:58:07.392Z,0
2018-01-14T00:59:16.856Z,0
2018-01-14T01:00:26.319Z,0
2018-01-14T01:01:36.316Z,0
2018-01-14T01:02:46.035Z,0
2018-01-14T01:03:55.783Z,0
2018-01-14T01:05:04.976Z,0
2018-01-14T01:06:14.698Z,0
2018-01-14T01:07:24.421Z,0
2018-01-14T01:08:34.150Z,0
2018-01-14T01:09:43.374Z,0
2018-01-14T01:10:53.365Z,0
2018-01-14T01:12:02.577Z,0
2018-01-14T01:13:12.035Z,0
2018-01-14T01:14:22.020Z,0
2018-01-14T01:15:31.498Z,0
2018-01-14T01:16:41.515Z,0
2018-01-14T01:17:50.712Z,0
2018-01-14T01:19:00.458Z,0
2018-01-14T01:20:09.916Z,0
2018-01-14T01:21:19.378Z,0
2018-01-14T01:22:28.861Z,0
2018-01-14T01:23:37.794Z,0
2018-01-14T01:24:47.518Z,0
2018-01-14T01:25:57.240Z,0
2018-01-14T01:27:06.957Z,0
2018-01-14T01:28:16.428Z,0
2018-01-14T01:29:25.885Z,0
2018-01-14T01:30:35.075Z,0
2018-01-14T01:31:44.542Z,0
2018-01-14T01:32:53.738Z,0
2018-01-14T01:34:03.200Z,0
2018-01-14T01:35:12.663Z,0
2018-01-14T01:36:22.393Z,0
2018-01-14T01:37:31.579Z,0
2018-01-14T01:38:41.038Z,0
2018-01-14T01:39:50.763Z,0
2018-01-14T01:41:00.478Z,0
2018-01-14T01:42:10.200Z,0
2018-01-14T01:43:19.924Z,0
2018-01-14T01:44:29.378Z,0
2018-01-14T01:45:39.252Z,0
2018-01-14T01:46:49.247Z,0
2018-01-14T01:47:58.702Z,0
2018-01-14T01:49:07.898Z,0
2018-01-14T01:50:17.887Z,0
2018-01-14T01:51:27.341Z,0
2018-01-14T01:52:36.805Z,0
2018-01-14T01:53:46.296Z,0
2018-01-14T01:54:55.767Z,0
2018-01-14T01:56:04.958Z,0
2018-01-14T01:57:14.708Z,0
2018-01-14T01:58:24.453Z,0
2018-01-14T01:59:34.223Z,0
2018-01-14T02:00:43.988Z,0
2018-01-14T02:01:53.460Z,0
2018-01-14T02:03:03.505Z,0
2018-01-14T02:04:12.695Z,0
2018-01-14T02:05:22.680Z,0
2018-01-14T02:06:32.138Z,0
2018-01-14T02:07:41.354Z,0
2018-01-14T02:08:50.286Z,0
2018-01-14T02:10:00.015Z,0
2018-01-14T02:11:09.487Z,0
2018-01-14T02:12:18.674Z,0
2018-01-14T02:13:28.401Z,0
2018-01-14T02:14:38.120Z,0
2018-01-14T02:15:47.318Z,0
2018-01-14T02:16:56.776Z,0
2018-01-14T02:18:06.750Z,0
2018-01-14T02:19:16.336Z,0
2018-01-14T02:20:25.941Z,0
2018-01-14T02:21:35.399Z,0
2018-01-14T02:22:45.204Z,0
2018-01-14T02:23:54.403Z,0
2018-01-14T02:25:03.938Z,0
2018-01-14T02:26:13.387Z,0
2018-01-14T02:27:23.422Z,0
2018-01-14T02:28:32.909Z,0
2018-01-14T02:29:42.627Z,0
2018-01-14T02:30:52.359Z,0
2018-01-14T02:32:01.974Z,0
2018-01-14T02:33:11.483Z,0
2018-01-14T02:34:20.949Z,0
2018-01-14T02:35:30.412Z,0
2018-01-14T02:36:40.403Z,0
2018-01-14T02:37:50.124Z,0
2018-01-14T02:38:59.568Z,0
2018-01-14T02:40:09.327Z,0
2018-01-14T02:41:18.775Z,0
2018-01-14T02:42:28.514Z,0
2018-01-14T02:43:38.286Z,0
2018-01-14T02:44:47.998Z,0
2018-01-14T02:45:57.717Z,0
2018-01-14T02:47:06.917Z,0
2018-01-14T02:48:17.065Z,0
2018-01-14T02:49:26.528Z,0
2018-01-14T02:50:35.777Z,0
2018-01-14T02:51:44.705Z,0
2018-01-14T02:52:54.169Z,0
2018-01-14T02:54:03.630Z,0
2018-01-14T02:55:13.351Z,0
2018-01-14T02:56:22.816Z,0
2018-01-14T02:57:32.272Z,0
2018-01-14T02:58:41.999Z,0
2018-01-14T02:59:51.732Z,0
2018-01-14T03:01:01.265Z,0
2018-01-14T03:02:10.993Z,0
2018-01-14T03:03:20.444Z,0
2018-01-14T03:04:29.639Z,0
2018-01-14T03:05:39.507Z,0
2018-01-14T03:06:49.233Z,0
2018-01-14T03:07:58.963Z,0
2018-01-14T03:09:08.465Z,0
2018-01-14T03:10:17.939Z,0
2018-01-14T03:11:27.734Z,0
2018-01-14T03:12:37.519Z,0
2018-01-14T03:13:46.983Z,0
2018-01-14T03:14:55.653Z,0
2018-01-14T03:16:05.516Z,0
2018-01-14T03:17:15.243Z,0
2018-01-14T03:18:25.218Z,0
2018-01-14T03:19:35.202Z,0
2018-01-14T03:20:45.640Z,0
2018-01-14T03:21:55.162Z,0
2018-01-14T03:23:04.883Z,0
2018-01-14T03:24:14.400Z,0
2018-01-14T03:25:23.871Z,0
2018-01-14T03:26:33.318Z,0
2018-01-14T03:27:43.039Z,0
2018-01-14T03:28:53.177Z,0
2018-01-14T03:30:02.365Z,0
2018-01-14T03:31:12.098Z,0
2018-01-14T03:32:21.809Z,0
2018-01-14T03:33:31.268Z,0
2018-01-14T03:34:40.996Z,0
2018-01-14T03:35:50.191Z,0
2018-01-14T03:36:59.903Z,0
2018-01-14T03:38:09.354Z,0
2018-01-14T03:39:19.082Z,0
2018-01-14T03:40:29.062Z,0
2018-01-14T03:41:38.794Z,0
2018-01-14T03:42:48.519Z,0
2018-01-14T03:43:58.506Z,0
2018-01-14T03:45:07.971Z,0
2018-01-14T03:46:17.834Z,0
2018-01-14T03:47:27.290Z,0
2018-01-14T03:48:36.479Z,0
2018-01-14T03:49:46.459Z,0
2018-01-14T03:50:55.913Z,0
2018-01-14T03:52:05.160Z,0
2018-01-14T03:53:14.887Z,0
2018-01-14T03:54:24.859Z,0
2018-01-14T03:55:34.582Z,0
2018-01-14T03:56:44.345Z,0
2018-01-14T03:57:53.813Z,0
2018-01-14T03:59:03.258Z,0
2018-01-14T04:00:12.803Z,0
2018-01-14T04:01:22.524Z,0
2018-01-14T04:02:31.992Z,0
2018-01-14T04:03:41.603Z,0
2018-01-14T04:04:51.323Z,0
2018-01-14T04:06:01.166Z,0
2018-01-14T04:07:11.148Z,0
2018-01-14T04:08:21.141Z,0
2018-01-14T04:09:30.862Z,0
2018-01-14T04:10:40.590Z,0
2018-01-14T04:11:50.296Z,0
2018-01-14T04:13:00.022Z,0
2018-01-14T04:14:09.752Z,0
2018-01-14T04:15:18.951Z,0
2018-01-14T04:16:28.408Z,0
2018-01-14T04:17:37.868Z,0
2018-01-14T04:18:47.584Z,0
2018-01-14T04:19:57.303Z,0
2018-01-14T04:21:07.188Z,0
2018-01-14T04:22:16.916Z,0
2018-01-14T04:23:26.906Z,0
2018-01-14T04:24:36.651Z,0
2018-01-14T04:25:46.367Z,0
2018-01-14T04:26:55.553Z,0
2018-01-14T04:28:04.998Z,0
2018-01-14T04:29:14.233Z,0
2018-01-14T04:30:24.006Z,0
2018-01-14T04:31:33.193Z,0
2018-01-14T04:32:42.386Z,0
2018-01-14T04:33:52.118Z,0
2018-01-14T04:35:02.098Z,0
2018-01-14T04:36:11.991Z,0
2018-01-14T04:37:21.503Z,0
2018-01-14T04:38:31.419Z,0
2018-01-14T04:39:41.389Z,0
2018-01-14T04:40:51.101Z,0
2018-01-14T04:42:00.294Z,0
2018-01-14T04:43:10.021Z,0
2018-01-14T04:44:19.480Z,0
2018-01-14T04:45:29.238Z,0
2018-01-14T04:46:38.706Z,0
2018-01-14T04:47:48.468Z,0
2018-01-14T04:48:57.920Z,0
2018-01-14T04:50:06.851Z,0
2018-01-14T04:51:16.992Z,0
2018-01-14T04:52:26.851Z,0
2018-01-14T04:53:36.348Z,0
2018-01-14T04:54:45.545Z,0
2018-01-14T04:55:55.151Z,0
2018-01-14T04:57:04.606Z,0
2018-01-14T04:58:13.803Z,0
2018-01-14T04:59:22.993Z,0
2018-01-14T05:00:32.187Z,0
2018-01-14T05:01:41.647Z,0
2018-01-14T05:02:51.374Z,0
2018-01-14T05:04:00.833Z,0
2018-01-14T05:05:10.342Z,0
2018-01-14T05:06:20.324Z,0
2018-01-14T05:07:29.777Z,0
2018-01-14T05:08:38.961Z,0
2018-01-14T05:09:48.414Z,0
2018-01-14T05:10:57.614Z,0
2018-01-14T05:12:07.344Z,0
2018-01-14T05:13:16.954Z,0
2018-01-14T05:14:26.680Z,0
2018-01-14T05:15:36.394Z,0
2018-01-14T05:16:45.848Z,0
2018-01-14T05:17:55.306Z,0
2018-01-14T05:19:05.036Z,0
2018-01-14T05:20:14.763Z,0
2018-01-14T05:21:24.219Z,0
2018-01-14T05:22:33.153Z,0
2018-01-14T05:23:43.311Z,0
2018-01-14T05:24:52.770Z,0
2018-01-14T05:26:02.239Z,0
2018-01-14T05:27:11.426Z,0
2018-01-14T05:28:20.874Z,0
2018-01-14T05:29:30.589Z,0
2018-01-14T05:30:40.040Z,0
2018-01-14T05:31:49.502Z,0
2018-01-14T05:32:59.220Z,0
2018-01-14T05:34:08.934Z,0
2018-01-14T05:35:18.113Z,0
2018-01-14T05:36:27.307Z,0
2018-01-14T05:37:36.759Z,0
2018-01-14T05:38:46.221Z,0
2018-01-14T05:39:55.413Z,0
2018-01-14T05:41:04.868Z,0
2018-01-14T05:42:14.055Z,0
2018-01-14T05:43:23.243Z,0
2018-01-14T05:44:33.235Z,0
2018-01-14T05:45:43.222Z,0
2018-01-14T05:46:52.942Z,0
2018-01-14T05:48:02.655Z,0
2018-01-14T05:49:12.373Z,0
2018-01-14T05:50:21.815Z,0
2018-01-14T05:51:31.814Z,0
2018-01-14T05:52:41.523Z,0
2018-01-14T05:53:50.722Z,0
2018-01-14T05:55:00.443Z,0
2018-01-14T05:56:09.921Z,0
2018-01-14T05:57:19.113Z,0
2018-01-14T05:58:28.561Z,0
2018-01-14T05:59:38.175Z,0
2018-01-14T06:00:47.895Z,0
2018-01-14T06:01:57.098Z,0
2018-01-14T06:03:07.073Z,0
2018-01-14T06:04:16.544Z,0
2018-01-14T06:05:25.739Z,0
2018-01-14T06:06:35.182Z,0
2018-01-14T06:07:44.893Z,0
2018-01-14T06:08:54.864Z,0
2018-01-14T06:10:04.320Z,0
2018-01-14T06:11:13.522Z,0
2018-01-14T06:12:22.715Z,0
2018-01-14T06:13:32.438Z,0
2018-01-14T06:14:41.629Z,0
2018-01-14T06:15:51.351Z,0
2018-01-14T06:17:00.545Z,0
2018-01-14T06:18:10.539Z,0
2018-01-14T06:19:19.998Z,0
2018-01-14T06:20:29.785Z,0
2018-01-14T06:21:39.242Z,0
2018-01-14T06:22:48.951Z,0
2018-01-14T06:23:58.673Z,0
2018-01-14T06:25:07.883Z,0
2018-01-14T06:26:17.334Z,0
2018-01-14T06:27:27.048Z,0
2018-01-14T06:28:36.656Z,0
2018-01-14T06:29:45.844Z,0
2018-01-14T06:30:55.838Z,0
2018-01-14T06:32:05.022Z,0
2018-01-14T06:33:14.744Z,0
2018-01-14T06:34:24.455Z,0
2018-01-14T06:35:33.656Z,0
2018-01-14T06:36:43.385Z,0
2018-01-14T06:37:52.579Z,0
2018-01-14T06:39:01.234Z,0
2018-01-14T06:40:10.952Z,0
2018-01-14T06:41:20.403Z,0
2018-01-14T06:42:29.330Z,0
2018-01-14T06:43:39.303Z,0
2018-01-14T06:44:48.513Z,0
2018-01-14T06:45:58.234Z,0
2018-01-14T06:47:07.955Z,0
2018-01-14T06:48:17.942Z,0
2018-01-14T06:49:27.658Z,0
2018-01-14T06:50:37.126Z,0
2018-01-14T06:51:46.852Z,0
2018-01-14T06:52:56.302Z,0
2018-01-14T06:54:06.022Z,0
2018-01-14T06:55:15.740Z,0
2018-01-14T06:56:25.484Z,0
2018-01-14T06:57:35.202Z,0
2018-01-14T06:58:44.654Z,0
2018-01-14T06:59:54.113Z,0
2018-01-14T07:01:03.696Z,0
2018-01-14T07:02:13.155Z,0
2018-01-14T07:03:22.873Z,0
2018-01-14T07:04:32.329Z,0
2018-01-14T07:05:41.791Z,0
2018-01-14T07:06:51.552Z,0
2018-01-14T07:08:01.536Z,0
2018-01-14T07:09:11.004Z,0
2018-01-14T07:10:20.478Z,0
2018-01-14T07:11:29.669Z,0
2018-01-14T07:12:39.397Z,0
2018-01-14T07:13:49.137Z,0
2018-01-14T07:14:58.585Z,0
2018-01-14T07:16:08.573Z,0
2018-01-14T07:17:18.306Z,0
2018-01-14T07:18:27.762Z,0
2018-01-14T07:19:36.948Z,0
2018-01-14T07:20:46.676Z,0
2018-01-14T07:21:55.870Z,0
2018-01-14T07:23:05.639Z,0
2018-01-14T07:24:15.103Z,0
2018-01-14T07:25:24.568Z,0
2018-01-14T07:26:33.765Z,0
2018-01-14T07:27:42.965Z,0
2018-01-14T07:28:52.693Z,0
2018-01-14T07:30:02.424Z,0
2018-01-14T07:31:12.145Z,0
2018-01-14T07:32:21.857Z,0
2018-01-14T07:33:31.389Z,0
2018-01-14T07:34:41.302Z,0
2018-01-14T07:35:51.125Z,0
2018-01-14T07:37:00.593Z,0
2018-01-14T07:38:10.146Z,0
2018-01-14T07:39:19.860Z,0
2018-01-14T07:40:29.093Z,0
2018-01-14T07:41:38.378Z,0
2018-01-14T07:42:48.117Z,0
2018-01-14T07:43:57.573Z,0
2018-01-14T07:45:06.511Z,0
2018-01-14T07:46:16.297Z,0
2018-01-14T07:47:26.014Z,0
2018-01-14T07:48:35.464Z,5
2018-01-14T07:49:44.656Z,5
2018-01-14T07:50:54.374Z,5
2018-01-14T07:52:04.094Z,5
2018-01-14T07:53:13.335Z,5
2018-01-14T07:54:23.041Z,5
2018-01-14T07:55:32.754Z,5
2018-01-14T07:56:42.759Z,5
2018-01-14T07:57:52.746Z,5
2018-01-14T07:59:02.474Z,5
2018-01-14T08:00:12.194Z,5
2018-01-14T08:01:21.936Z,5
2018-01-14T08:02:31.386Z,5
2018-01-14T08:03:41.369Z,5
2018-01-14T08:04:50.825Z,10
2018-01-14T08:06:00.539Z,10
2018-01-14T08:07:09.727Z,10
2018-01-14T08:08:18.925Z,10
2018-01-14T08:09:28.382Z,10
2018-01-14T08:10:37.892Z,10
2018-01-14T08:11:47.613Z,10
2018-01-14T08:12:57.587Z,10
2018-01-14T08:14:06.513Z,10
2018-01-14T08:15:15.179Z,10
2018-01-14T08:16:24.369Z,10
2018-01-14T08:17:33.830Z,10
2018-01-14T08:18:43.357Z,10
2018-01-14T08:19:53.087Z,15
2018-01-14T08:21:02.811Z,15
2018-01-14T08:22:12.268Z,15
2018-01-14T08:23:21.712Z,15
2018-01-14T08:24:31.224Z,15
2018-01-14T08:25:40.959Z,15
2018-01-14T08:26:50.151Z,15
2018-01-14T08:28:00.155Z,15
2018-01-14T08:29:10.132Z,15
2018-01-14T08:30:19.853Z,15
2018-01-14T08:31:29.600Z,15
2018-01-14T08:32:39.051Z,15
2018-01-14T08:33:49.048Z,20
2018-01-14T08:34:58.771Z,20
2018-01-14T08:36:08.289Z,20
2018-01-14T08:37:18.013Z,20
2018-01-14T08:38:27.738Z,25
2018-01-14T08:39:37.731Z,25
2018-01-14T08:40:47.458Z,25
2018-01-14T08:41:56.914Z,25
2018-01-14T08:43:06.648Z,25
2018-01-14T08:44:16.104Z,25
2018-01-14T08:45:25.551Z,25
2018-01-14T08:46:35.008Z,30
2018-01-14T08:47:45.017Z,30
2018-01-14T08:48:54.732Z,30
2018-01-14T08:50:04.738Z,30
2018-01-14T08:51:14.198Z,30
2018-01-14T08:52:23.917Z,35
2018-01-14T08:53:33.168Z,35
2018-01-14T08:54:42.893Z,35
2018-01-14T08:55:52.343Z,35
2018-01-14T08:57:01.864Z,35
2018-01-14T08:58:11.900Z,40
2018-01-14T08:59:21.893Z,40
2018-01-14T09:00:31.078Z,40
2018-01-14T09:01:40.277Z,40
2018-01-14T09:02:49.872Z,45
2018-01-14T09:03:59.655Z,45
2018-01-14T09:05:09.400Z,45
2018-01-14T09:06:18.601Z,45
2018-01-14T09:07:27.523Z,50
2018-01-14T09:08:37.243Z,50
2018-01-14T09:09:46.725Z,50
2018-01-14T09:10:56.459Z,50
2018-01-14T09:12:06.446Z,50
2018-01-14T09:13:15.650Z,50
2018-01-14T09:14:25.102Z,50
2018-01-14T09:15:34.291Z,55
2018-01-14T09:16:43.738Z,55
2018-01-14T09:17:52.934Z,55
2018-01-14T09:19:02.138Z,55
2018-01-14T09:20:11.372Z,55
2018-01-14T09:21:20.572Z,55
2018-01-14T09:22:30.029Z,55
2018-01-14T09:23:39.926Z,55
2018-01-14T09:24:49.419Z,55
2018-01-14T09:25:58.872Z,55
2018-01-14T09:27:07.821Z,55
2018-01-14T09:28:17.039Z,55
2018-01-14T09:29:26.762Z,60
2018-01-14T09:30:36.799Z,60
2018-01-14T09:31:46.029Z,60
2018-01-14T09:32:55.750Z,60
2018-01-14T09:34:05.744Z,60
2018-01-14T09:35:15.206Z,60
2018-01-14T09:36:24.665Z,60
2018-01-14T09:37:34.683Z,60
2018-01-14T09:38:44.537Z,60
2018-01-14T09:39:54.398Z,60
2018-01-14T09:41:03.613Z,60
2018-01-14T09:42:13.427Z,60
2018-01-14T09:43:23.164Z,60
2018-01-14T09:44:32.354Z,65
2018-01-14T09:45:41.837Z,65
2018-01-14T09:46:51.591Z,65
2018-01-14T09:48:01.344Z,65
2018-01-14T09:49:10.796Z,65
2018-01-14T09:50:20.573Z,65
2018-01-14T09:51:30.294Z,65
2018-01-14T09:52:40.019Z,65
2018-01-14T09:53:50.020Z,65
2018-01-14T09:54:59.533Z,65
2018-01-14T09:56:09.255Z,65
2018-01-14T09:57:18.473Z,65
2018-01-14T09:58:28.202Z,65
2018-01-14T09:59:38.184Z,65
2018-01-14T10:00:47.654Z,65
2018-01-14T10:01:57.374Z,70
2018-01-14T10:03:07.355Z,70
2018-01-14T10:04:17.082Z,65
2018-01-14T10:05:26.834Z,70
2018-01-14T10:06:36.278Z,70
2018-01-14T10:07:46.019Z,70
2018-01-14T10:08:55.750Z,70
2018-01-14T10:10:05.207Z,75
2018-01-14T10:11:14.941Z,70
2018-01-14T10:12:24.443Z,70
2018-01-14T10:13:33.665Z,70
2018-01-14T10:14:43.127Z,70
2018-01-14T10:15:52.055Z,75
2018-01-14T10:17:01.328Z,75
2018-01-14T10:18:11.044Z,75
2018-01-14T10:19:20.783Z,70
2018-01-14T10:20:30.250Z,75
2018-01-14T10:21:39.736Z,70
2018-01-14T10:22:48.932Z,75
2018-01-14T10:23:58.445Z,75
2018-01-14T10:25:08.178Z,80
2018-01-14T10:26:17.914Z,70
2018-01-14T10:27:27.446Z,70
2018-01-14T10:28:37.183Z,70
2018-01-14T10:29:46.385Z,75
2018-01-14T10:30:56.424Z,80
2018-01-14T10:32:05.620Z,75
2018-01-14T10:33:14.821Z,70
2018-01-14T10:34:24.556Z,75
2018-01-14T10:35:34.082Z,75
2018-01-14T10:36:43.542Z,75
2018-01-14T10:37:53.317Z,75
2018-01-14T10:39:02.785Z,75
2018-01-14T10:40:12.504Z,85
2018-01-14T10:41:21.953Z,85
2018-01-14T10:42:31.406Z,75
2018-01-14T10:43:40.404Z,80
2018-01-14T10:44:49.589Z,85
2018-01-14T10:45:59.581Z,85
2018-01-14T10:47:08.859Z,85
2018-01-14T10:48:18.851Z,80
2018-01-14T10:49:28.333Z,85
2018-01-14T10:50:38.058Z,75
2018-01-14T10:51:48.049Z,85
2018-01-14T10:52:57.513Z,90
2018-01-14T10:54:06.979Z,80
2018-01-14T10:55:16.447Z,85
2018-01-14T10:56:26.234Z,85
2018-01-14T10:57:36.298Z,85
2018-01-14T10:58:45.680Z,80
2018-01-14T10:59:55.414Z,85
2018-01-14T11:01:05.050Z,90
2018-01-14T11:02:15.074Z,85
2018-01-14T11:03:24.894Z,75
2018-01-14T11:04:34.164Z,90
2018-01-14T11:05:43.455Z,90
2018-01-14T11:06:53.316Z,95
2018-01-14T11:08:02.611Z,95
2018-01-14T11:09:14.515Z,90
2018-01-14T11:10:24.320Z,95
2018-01-14T11:11:34.435Z,85
2018-01-14T11:12:43.689Z,85
2018-01-14T11:13:53.198Z,85
2018-01-14T11:15:02.445Z,95
2018-01-14T11:16:11.976Z,95
2018-01-14T11:17:21.443Z,95
2018-01-14T11:18:30.904Z,100
2018-01-14T11:19:40.943Z,95
2018-01-14T11:20:50.977Z,95
2018-01-14T11:21:59.938Z,95
2018-01-14T11:23:09.133Z,80
2018-01-14T11:24:18.592Z,90
2018-01-14T11:25:28.054Z,85
2018-01-14T11:26:38.043Z,85
2018-01-14T11:27:47.499Z,85
2018-01-14T11:28:57.225Z,80
2018-01-14T11:30:07.236Z,85
2018-01-14T11:31:16.699Z,90
2018-01-14T11:32:25.644Z,85
2018-01-14T11:33:35.382Z,90
2018-01-14T11:34:45.099Z,90
2018-01-14T11:35:54.560Z,95
2018-01-14T11:37:03.746Z,95
2018-01-14T11:38:13.467Z,95
2018-01-14T11:39:22.667Z,95
2018-01-14T11:40:32.489Z,85
2018-01-14T11:41:42.278Z,95
2018-01-14T11:42:51.479Z,85
2018-01-14T11:44:00.948Z,90
2018-01-14T11:45:10.949Z,90
2018-01-14T11:46:20.425Z,90
2018-01-14T11:47:29.871Z,95
2018-01-14T11:48:38.795Z,95
2018-01-14T11:49:48.527Z,95
2018-01-14T11:50:57.719Z,90
2018-01-14T11:52:07.256Z,75
2018-01-14T11:53:17.027Z,90
2018-01-14T11:54:26.856Z,85
2018-01-14T11:55:36.888Z,95
2018-01-14T11:56:46.340Z,85
2018-01-14T11:57:56.125Z,90
2018-01-14T11:59:05.875Z,85
2018-01-14T12:00:14.822Z,95
2018-01-14T12:01:24.094Z,95
2018-01-14T12:02:33.841Z,95
2018-01-14T12:03:43.649Z,100
2018-01-14T12:04:53.118Z,95
2018-01-14T12:06:02.577Z,95
2018-01-14T12:07:11.765Z,95
2018-01-14T12:08:21.498Z,100
2018-01-14T12:09:31.222Z,95
2018-01-14T12:10:40.678Z,95
2018-01-14T12:11:50.398Z,95
2018-01-14T12:13:00.429Z,95
2018-01-14T12:14:09.948Z,95
2018-01-14T12:15:19.938Z,95
2018-01-14T12:16:29.672Z,95
2018-01-14T12:17:39.130Z,95
2018-01-14T12:18:48.850Z,95
2018-01-14T12:19:58.298Z,95
2018-01-14T12:21:07.761Z,95
2018-01-14T12:22:17.330Z,95
2018-01-14T12:23:27.323Z,95
2018-01-14T12:24:37.043Z,95
2018-01-14T12:25:46.499Z,95
2018-01-14T12:26:56.226Z,95
2018-01-14T12:28:05.541Z,95
2018-01-14T12:29:15.262Z,95
2018-01-14T12:30:24.980Z,95
2018-01-14T12:31:34.164Z,95
2018-01-14T12:32:44.141Z,95
2018-01-14T12:33:53.593Z,95
2018-01-14T12:35:02.786Z,95
2018-01-14T12:36:12.286Z,100
2018-01-14T12:37:22.271Z,100
2018-01-14T12:38:31.747Z,100
2018-01-14T12:39:41.227Z,100
2018-01-14T12:40:50.701Z,100
2018-01-14T12:42:00.497Z,100
2018-01-14T12:43:09.972Z,100
2018-01-14T12:44:19.702Z,100
2018-01-14T12:45:29.427Z,100
2018-01-14T12:46:38.618Z,100
2018-01-14T12:47:48.342Z,100
2018-01-14T12:48:58.075Z,95
2018-01-14T12:50:07.810Z,95
2018-01-14T12:51:17.533Z,95
2018-01-14T12:52:27.004Z,95
2018-01-14T12:53:36.193Z,95
2018-01-14T12:54:45.655Z,95
2018-01-14T12:55:55.389Z,95
2018-01-14T12:57:04.314Z,95
2018-01-14T12:58:14.032Z,95
2018-01-14T12:59:23.756Z,95
2018-01-14T13:00:33.478Z,95
2018-01-14T13:01:42.949Z,95
2018-01-14T13:02:52.140Z,95
2018-01-14T13:04:01.591Z,95
2018-01-14T13:05:10.784Z,95
2018-01-14T13:06:20.239Z,95
2018-01-14T13:07:29.707Z,95
2018-01-14T13:08:38.907Z,95
2018-01-14T13:09:48.105Z,95
2018-01-14T13:10:57.033Z,95
2018-01-14T13:12:05.973Z,95
2018-01-14T13:13:15.430Z,95
2018-01-14T13:14:25.140Z,95
2018-01-14T13:15:34.958Z,95
2018-01-14T13:16:43.644Z,95
2018-01-14T13:17:53.246Z,90
2018-01-14T13:19:02.724Z,90
2018-01-14T13:20:12.219Z,90
2018-01-14T13:21:21.968Z,90
2018-01-14T13:22:31.456Z,90
2018-01-14T13:23:41.174Z,90
2018-01-14T13:24:50.944Z,90
2018-01-14T13:26:00.665Z,90
2018-01-14T13:27:10.677Z,90
2018-01-14T13:28:20.128Z,90
2018-01-14T13:29:29.933Z,90
2018-01-14T13:30:39.930Z,90
2018-01-14T13:31:49.449Z,90
2018-01-14T13:32:58.973Z,85
2018-01-14T13:34:08.176Z,85
2018-01-14T13:35:17.398Z,85
2018-01-14T13:36:27.413Z,85
2018-01-14T13:37:36.882Z,85
2018-01-14T13:38:46.358Z,85
2018-01-14T13:39:55.817Z,85
2018-01-14T13:41:05.800Z,85
2018-01-14T13:42:15.020Z,85
2018-01-14T13:43:24.747Z,85
2018-01-14T13:44:34.245Z,85
2018-01-14T13:45:44.249Z,80
2018-01-14T13:46:54.024Z,80
2018-01-14T13:48:03.783Z,80
2018-01-14T13:49:13.800Z,80
2018-01-14T13:50:23.533Z,80
2018-01-14T13:51:33.281Z,80
2018-01-14T13:52:43.278Z,80
2018-01-14T13:53:53.023Z,80
2018-01-14T13:55:02.511Z,80
2018-01-14T13:56:11.996Z,80
2018-01-14T13:57:21.479Z,75
2018-01-14T13:58:30.946Z,75
2018-01-14T13:59:40.410Z,75
2018-01-14T14:00:49.883Z,75
2018-01-14T14:01:59.347Z,75
2018-01-14T14:03:08.822Z,75
2018-01-14T14:04:18.415Z,75
2018-01-14T14:05:27.781Z,75
2018-01-14T14:06:37.385Z,75
2018-01-14T14:07:47.172Z,75
2018-01-14T14:08:56.912Z,75
2018-01-14T14:10:06.648Z,75
2018-01-14T14:11:16.173Z,70
2018-01-14T14:12:25.409Z,70
2018-01-14T14:13:34.435Z,70
2018-01-14T14:14:44.468Z,70
2018-01-14T14:15:53.936Z,70
2018-01-14T14:17:03.519Z,70
2018-01-14T14:18:12.971Z,65
2018-01-14T14:19:22.692Z,65
2018-01-14T14:20:32.224Z,65
2018-01-14T14:21:42.241Z,65
2018-01-14T14:22:51.705Z,65
2018-01-14T14:24:00.692Z,65
2018-01-14T14:25:09.891Z,65
2018-01-14T14:26:19.682Z,65
2018-01-14T14:27:29.425Z,65
2018-01-14T14:28:39.204Z,65
2018-01-14T14:29:48.797Z,65
2018-01-14T14:30:58.395Z,65
2018-01-14T14:32:08.193Z,60
2018-01-14T14:33:18.177Z,60
2018-01-14T14:34:27.644Z,60
2018-01-14T14:35:37.114Z,60
2018-01-14T14:36:46.067Z,60
2018-01-14T14:37:55.650Z,55
2018-01-14T14:39:05.130Z,55
2018-01-14T14:40:14.935Z,55
2018-01-14T14:41:24.674Z,55
2018-01-14T14:42:34.561Z,55
2018-01-14T14:43:43.944Z,55
2018-01-14T14:44:53.417Z,55
2018-01-14T14:46:03.503Z,50
2018-01-14T14:47:12.997Z,50
2018-01-14T14:48:22.604Z,50
2018-01-14T14:49:32.347Z,50
2018-01-14T14:50:41.830Z,50
2018-01-14T14:51:51.581Z,45
2018-01-14T14:53:01.337Z,45
2018-01-14T14:54:10.553Z,45
2018-01-14T14:55:20.096Z,45
2018-01-14T14:56:29.608Z,45
2018-01-14T14:57:39.682Z,40
2018-01-14T14:58:48.920Z,40
2018-01-14T14:59:58.664Z,40
2018-01-14T15:01:08.436Z,40
2018-01-14T15:02:17.675Z,40
2018-01-14T15:03:27.519Z,35
2018-01-14T15:04:36.984Z,35
2018-01-14T15:05:46.483Z,35
2018-01-14T15:06:55.944Z,35
2018-01-14T15:08:04.943Z,35
2018-01-14T15:09:13.890Z,35
2018-01-14T15:10:23.119Z,30
2018-01-14T15:11:32.610Z,30
2018-01-14T15:12:42.380Z,30
2018-01-14T15:13:51.940Z,25
2018-01-14T15:15:01.445Z,25
2018-01-14T15:16:10.413Z,20
2018-01-14T15:17:19.906Z,20
2018-01-14T15:18:29.360Z,20
2018-01-14T15:19:38.568Z,20
2018-01-14T15:20:48.343Z,20
2018-01-14T15:21:57.829Z,15
2018-01-14T15:23:07.629Z,15
2018-01-14T15:24:17.382Z,15
2018-01-14T15:25:26.610Z,15
2018-01-14T15:26:36.195Z,15
2018-01-14T15:27:45.702Z,15
2018-01-14T15:28:54.912Z,15
2018-01-14T15:30:04.724Z,10
2018-01-14T15:31:14.433Z,10
2018-01-14T15:32:24.074Z,10
2018-01-14T15:33:33.693Z,10
2018-01-14T15:34:43.494Z,10
2018-01-14T15:35:52.886Z,10
2018-01-14T15:37:02.695Z,10
2018-01-14T15:38:12.476Z,10
2018-01-14T15:39:22.507Z,5
2018-01-14T15:40:32.207Z,5
2018-01-14T15:41:41.402Z,5
2018-01-14T15:42:50.845Z,5
2018-01-14T15:44:00.647Z,5
2018-01-14T15:45:10.477Z,5
2018-01-14T15:46:19.983Z,5
2018-01-14T15:47:29.541Z,5
2018-01-14T15:48:38.933Z,5
2018-01-14T15:49:48.442Z,0
2018-01-14T15:50:58.500Z,0
2018-01-14T15:52:07.513Z,0
2018-01-14T15:53:17.241Z,0
2018-01-14T15:54:27.018Z,0
2018-01-14T15:55:36.560Z,0
2018-01-14T15:56:46.067Z,0
2018-01-14T15:57:55.608Z,0
2018-01-14T15:59:05.645Z,0
2018-01-14T16:00:14.649Z,0
2018-01-14T16:01:24.827Z,0
2018-01-14T16:02:34.304Z,0
2018-01-14T16:03:43.860Z,0
2018-01-14T16:04:53.203Z,0
2018-01-14T16:06:03.055Z,0
2018-01-14T16:07:12.737Z,0
2018-01-14T16:08:22.539Z,0
2018-01-14T16:09:32.278Z,0
2018-01-14T16:10:41.752Z,0
2018-01-14T16:11:50.963Z,0
2018-01-14T16:13:00.431Z,0
2018-01-14T16:14:10.473Z,0
2018-01-14T16:15:20.259Z,0
2018-01-14T16:16:30.069Z,0
2018-01-14T16:17:39.534Z,0
2018-01-14T16:18:49.050Z,0
2018-01-14T16:19:58.565Z,0
2018-01-14T16:21:08.571Z,0
2018-01-14T16:22:18.428Z,0
2018-01-14T16:23:27.410Z,0
2018-01-14T16:24:37.165Z,0
2018-01-14T16:25:47.309Z,0
2018-01-14T16:26:56.299Z,0
2018-01-14T16:28:06.049Z,0
2018-01-14T16:29:15.606Z,0
2018-01-14T16:30:25.693Z,0
2018-01-14T16:31:35.211Z,0
2018-01-14T16:32:44.685Z,0
2018-01-14T16:33:54.257Z,0
2018-01-14T16:35:03.554Z,0
2018-01-14T16:36:13.377Z,0
2018-01-14T16:37:23.001Z,0
2018-01-14T16:38:32.889Z,0
2018-01-14T16:39:43.150Z,0
2018-01-14T16:40:53.235Z,0
2018-01-14T16:42:02.927Z,0
2018-01-14T16:43:11.878Z,0
2018-01-14T16:44:20.997Z,0
2018-01-14T16:45:30.793Z,0
2018-01-14T16:46:40.514Z,0
2018-01-14T16:47:50.141Z,0
2018-01-14T16:48:59.380Z,0
2018-01-14T16:50:08.966Z,0
2018-01-14T16:51:18.744Z,0